Gustavus Airport
PAGS : rendu visible

Aérodrome :











RETROUVEZ-NOUS SUR...

 
LOGIN :

S'inscrire | Disclaimer

   EN    FR    IT 

 









Légende :    VFR   VFR Marginal   IFR   IFR Intensif   IFR Très Intensif
Visi : 
Plafond : 
>= 8 km
>= 3000ft
5 à 8 km
1000 à 3000 ft
1500m à 5 km
500 à 1000 ft
800 à 1500m
200 à 500 ft
< 800m
< 200 ft
Symboles :   Orages  Brouillard  Fortes neiges  Fortes précipitations  Vent > 20 kt






- Altitude de l'aérodrome : 35 ft
- Code IATA : GST


PAGS - Gustavus

DERNIER METAR :
  • 271556Z AUTO VRB06KT 8SM -RA OVC037 09/06 A2953 RMK AO2 PRESFR SLP999 P0007 T00890061

METARs EXPIRÉS :
  • 271456Z AUTO 10004KT 9SM -RA OVC039 09/07 A2960 RMK AO2 SLP024 P0006 60017 T00940067 58050
  • 271356Z AUTO 04005KT 10SM -RA OVC043 09/07 A2965 RMK AO2 PRESFR SLP041 P0008 T00940067

TAF PAGS
Valide du 27 à 12h jusqu'au 28 à 12h UTC


271135Z 2712/2812 13007KT P6SM VCSH BKN070 WS020/13040KT
FM271500 12012G20KT 6SM -RA FEW010 BKN025 WS020/12050KT
FM272000 12020G30KT 4SM -RA BR OVC015 WS020/16040KT
FM280900 12015G23KT 4SM -RA BR OVC025 AMD LTD TO CLD VIS AND WIND
FIR PAZA / Amérique du Nord



MET'MAP, la Météo Aéronautique d'un coup d'oeil ! - Copyright ORBIFLY Décembre 2007 - Disclaimer

ORBIFLY MET'MAP TEAM :

Programmation & Développement : Alexandra Zaïnal
Sur une idée originale de : Baudouin d'Aumeries
Assistance à la programmation : Marc-Olivier Méhu
Soutien technique & logistique : Manuel Goepfert

Contact : metmap@orbifly.com




SOURCES & CREDITS :

   NOAA       Earth
Advisory